Time,TemperatureF,DewpointF,PressureIn,WindDirection,WindDirectionDegrees,WindSpeedMPH,WindSpeedGustMPH,Humidity,HourlyPrecipIn,Conditions,Clouds,dailyrainin,SoftwareType,DateUTC
2013-09-14 00:14:00,47.0,43.0,30.16,East,98,0.0,0.0,87,0.00,,,0.00,,2013-09-14 04:14:00,
2013-09-14 00:24:00,46.0,43.0,30.16,East,98,0.0,0.0,89,0.00,,,0.00,,2013-09-14 04:24:00,
2013-09-14 00:54:00,45.0,42.0,30.16,East,98,0.0,0.0,90,0.00,,,0.00,,2013-09-14 04:54:00,
2013-09-14 01:13:00,45.0,43.0,30.16,East,98,0.0,0.0,91,0.00,,,0.00,,2013-09-14 05:13:00,
2013-09-14 01:22:00,44.0,42.0,30.15,East,98,0.0,0.0,91,0.00,,,0.00,,2013-09-14 05:22:00,
2013-09-14 01:53:00,44.0,42.0,30.15,East,98,0.0,0.0,92,0.00,,,0.00,,2013-09-14 05:53:00,
2013-09-14 02:12:00,43.0,41.0,30.15,East,98,0.0,0.0,92,0.00,,,0.00,,2013-09-14 06:12:00,
2013-09-14 02:22:00,43.0,41.0,30.15,East,98,0.0,0.0,92,0.00,,,0.00,,2013-09-14 06:22:00,
2013-09-14 02:52:00,42.0,40.0,30.15,East,98,0.0,2.0,93,0.00,,,0.00,,2013-09-14 06:52:00,
2013-09-14 03:12:00,41.0,39.0,30.15,East,98,0.0,1.0,93,0.00,,,0.00,,2013-09-14 07:12:00,
2013-09-14 03:22:00,41.0,39.0,30.16,East,98,0.0,1.0,93,0.00,,,0.00,,2013-09-14 07:22:00,
2013-09-14 03:52:00,40.0,38.0,30.15,East,98,0.0,1.0,93,0.00,,,0.00,,2013-09-14 07:52:00,
2013-09-14 04:12:00,40.0,38.0,30.15,East,98,0.0,0.0,94,0.00,,,0.00,,2013-09-14 08:12:00,
2013-09-14 04:22:00,40.0,38.0,30.15,East,98,0.0,1.0,94,0.00,,,0.00,,2013-09-14 08:22:00,
2013-09-14 04:52:00,39.0,37.0,30.16,East,98,0.0,0.0,94,0.00,,,0.00,,2013-09-14 08:52:00,
2013-09-14 05:12:00,39.0,37.0,30.16,East,98,0.0,1.0,94,0.00,,,0.00,,2013-09-14 09:12:00,
2013-09-14 05:22:00,39.0,37.0,30.16,East,98,0.0,0.0,94,0.00,,,0.00,,2013-09-14 09:22:00,
2013-09-14 05:54:00,38.0,36.0,30.16,East,98,0.0,0.0,94,0.00,,,0.00,,2013-09-14 09:54:00,
2013-09-14 06:23:00,39.0,38.0,30.16,East,98,0.0,0.0,95,0.00,,,0.00,,2013-09-14 10:23:00,
2013-09-14 06:53:00,39.0,38.0,30.16,East,98,0.0,1.0,95,0.00,,,0.00,,2013-09-14 10:53:00,
2013-09-14 07:12:00,38.0,36.0,30.16,East,98,0.0,0.0,94,0.00,,,0.00,,2013-09-14 11:12:00,
2013-09-14 07:22:00,38.0,37.0,30.16,East,98,0.0,2.0,95,0.00,,,0.00,,2013-09-14 11:22:00,
2013-09-14 07:52:00,38.0,37.0,30.17,East,98,0.0,0.0,95,0.00,,,0.00,,2013-09-14 11:52:00,
2013-09-14 08:12:00,38.0,37.0,30.17,East,98,0.0,0.0,95,0.00,,,0.00,,2013-09-14 12:12:00,
2013-09-14 08:22:00,39.0,38.0,30.17,East,98,0.0,0.0,95,0.00,,,0.00,,2013-09-14 12:22:00,
2013-09-14 08:52:00,41.0,40.0,30.18,East,98,0.0,1.0,96,0.00,,,0.00,,2013-09-14 12:52:00,
2013-09-14 09:12:00,42.0,41.0,30.19,East,98,0.0,1.0,95,0.00,,,0.00,,2013-09-14 13:12:00,
2013-09-14 09:21:00,43.0,42.0,30.18,East,98,0.0,1.0,95,0.00,,,0.00,,2013-09-14 13:21:00,
2013-09-14 09:42:00,45.0,43.0,30.19,East,98,0.0,1.0,93,0.00,,,0.00,,2013-09-14 13:42:00,
2013-09-14 09:52:00,46.0,44.0,30.19,East,98,0.0,2.0,91,0.00,,,0.00,,2013-09-14 13:52:00,
2013-09-14 10:12:00,48.0,45.0,30.19,East,98,0.0,4.0,88,0.00,,,0.00,,2013-09-14 14:12:00,
2013-09-14 10:22:00,50.0,46.0,30.19,East,98,0.0,4.0,85,0.00,,,0.00,,2013-09-14 14:22:00,
2013-09-14 10:52:00,53.0,46.0,30.19,WSW,255,1.0,6.0,76,0.00,,,0.00,,2013-09-14 14:52:00,
2013-09-14 11:22:00,57.0,47.0,30.18,SSW,210,1.0,4.0,69,0.00,,,0.00,,2013-09-14 15:22:00,
2013-09-14 11:53:00,58.0,43.0,30.17,West,267,4.0,7.0,58,0.00,,,0.00,,2013-09-14 15:53:00,
2013-09-14 12:14:00,59.0,42.0,30.17,WSW,254,2.0,7.0,54,0.00,,,0.00,,2013-09-14 16:14:00,
2013-09-14 12:23:00,59.0,40.0,30.16,WNW,284,6.0,12.0,50,0.00,,,0.00,,2013-09-14 16:23:00,
2013-09-14 12:54:00,62.0,40.0,30.15,NNW,327,0.0,8.0,44,0.00,,,0.00,,2013-09-14 16:54:00,
2013-09-14 13:24:00,63.0,37.0,30.14,SW,236,8.0,10.0,38,0.00,,,0.00,,2013-09-14 17:24:00,
2013-09-14 13:54:00,64.0,40.0,30.13,West,265,0.0,6.0,41,0.00,,,0.00,,2013-09-14 17:54:00,
2013-09-14 14:12:00,64.0,39.0,30.14,SW,232,1.0,9.0,39,0.00,,,0.00,,2013-09-14 18:12:00,
2013-09-14 14:22:00,65.0,41.0,30.12,WNW,291,0.0,4.0,42,0.00,,,0.00,,2013-09-14 18:22:00,
2013-09-14 14:52:00,66.0,46.0,30.11,West,263,3.0,9.0,48,0.00,,,0.00,,2013-09-14 18:52:00,
2013-09-14 15:11:00,66.0,45.0,30.11,WNW,294,2.0,8.0,47,0.00,,,0.00,,2013-09-14 19:11:00,
2013-09-14 15:22:00,66.0,47.0,30.11,NNW,329,0.0,9.0,51,0.00,,,0.00,,2013-09-14 19:22:00,
2013-09-14 15:52:00,67.0,46.0,30.09,NW,326,2.0,7.0,47,0.00,,,0.00,,2013-09-14 19:52:00,
2013-09-14 16:12:00,67.0,41.0,30.09,West,277,8.0,16.0,39,0.00,,,0.00,,2013-09-14 20:12:00,
2013-09-14 16:22:00,67.0,39.0,30.09,WSW,258,4.0,8.0,36,0.00,,,0.00,,2013-09-14 20:22:00,
2013-09-14 16:52:00,66.0,46.0,30.09,NW,304,4.0,15.0,48,0.00,,,0.00,,2013-09-14 20:52:00,
2013-09-14 17:11:00,66.0,48.0,30.09,West,259,0.0,9.0,52,0.00,,,0.00,,2013-09-14 21:11:00,
2013-09-14 17:22:00,67.0,50.0,30.08,WNW,302,4.0,6.0,54,0.00,,,0.00,,2013-09-14 21:22:00,
2013-09-14 17:44:00,67.0,52.0,30.08,West,273,3.0,10.0,58,0.00,,,0.00,,2013-09-14 21:44:00,
2013-09-14 17:54:00,66.0,52.0,30.07,WNW,290,1.0,9.0,60,0.00,,,0.00,,2013-09-14 21:54:00,
2013-09-14 18:13:00,66.0,52.0,30.06,WNW,288,0.0,13.0,61,0.00,,,0.00,,2013-09-14 22:13:00,
2013-09-14 18:24:00,66.0,53.0,30.06,SW,215,1.0,8.0,62,0.00,,,0.00,,2013-09-14 22:24:00,
2013-09-14 18:42:00,64.0,52.0,30.07,WSW,248,0.0,7.0,64,0.00,,,0.00,,2013-09-14 22:42:00,
2013-09-14 18:53:00,63.0,51.0,30.06,WSW,246,1.0,6.0,66,0.00,,,0.00,,2013-09-14 22:53:00,
2013-09-14 19:12:00,63.0,51.0,30.07,WSW,252,6.0,9.0,65,0.00,,,0.00,,2013-09-14 23:12:00,
2013-09-14 19:23:00,62.0,51.0,30.07,West,276,0.0,7.0,68,0.00,,,0.00,,2013-09-14 23:23:00,
2013-09-14 19:53:00,61.0,52.0,30.07,West,275,0.0,1.0,73,0.00,,,0.00,,2013-09-14 23:53:00,
2013-09-14 20:12:00,60.0,52.0,30.07,West,275,0.0,0.0,75,0.00,,,0.00,,2013-09-15 00:12:00,
2013-09-14 20:22:00,59.0,52.0,30.07,West,275,0.0,0.0,77,0.00,,,0.00,,2013-09-15 00:22:00,
2013-09-14 20:42:00,58.0,52.0,30.06,West,275,0.0,0.0,81,0.00,,,0.00,,2013-09-15 00:42:00,
2013-09-14 20:53:00,57.0,52.0,30.06,West,275,0.0,0.0,83,0.00,,,0.00,,2013-09-15 00:53:00,
2013-09-14 21:11:00,56.0,52.0,30.06,West,275,0.0,0.0,85,0.00,,,0.00,,2013-09-15 01:11:00,
2013-09-14 21:22:00,55.0,52.0,30.07,West,275,0.0,0.0,88,0.00,,,0.00,,2013-09-15 01:22:00,
2013-09-14 21:42:00,54.0,51.0,30.07,West,275,0.0,0.0,89,0.00,,,0.00,,2013-09-15 01:42:00,
2013-09-14 21:52:00,54.0,51.0,30.07,West,275,0.0,0.0,90,0.00,,,0.00,,2013-09-15 01:52:00,
2013-09-14 22:12:00,53.0,50.0,30.07,West,275,0.0,0.0,91,0.00,,,0.00,,2013-09-15 02:12:00,
2013-09-14 22:22:00,53.0,50.0,30.06,West,275,0.0,0.0,91,0.00,,,0.00,,2013-09-15 02:22:00,
2013-09-14 22:42:00,53.0,51.0,30.06,West,275,0.0,0.0,92,0.00,,,0.00,,2013-09-15 02:42:00,
2013-09-14 22:52:00,53.0,51.0,30.05,West,275,0.0,0.0,93,0.00,,,0.00,,2013-09-15 02:52:00,
2013-09-14 23:11:00,52.0,50.0,30.05,West,275,0.0,0.0,92,0.00,,,0.00,,2013-09-15 03:11:00,
2013-09-14 23:22:00,52.0,50.0,30.05,West,275,0.0,0.0,93,0.00,,,0.00,,2013-09-15 03:22:00,
2013-09-14 23:55:00,52.0,50.0,30.05,West,275,0.0,0.0,93,0.00,,,0.00,,2013-09-15 03:55:00,